MSC Lea — 9HA2639 — position and weather

sailwx.info

Track history (hours):
 
Tides and Currents Weather Stations Pressure Air Temp Water Temp Dewpoint Dewpoint Depression Visibility Wind Speed Wind Dir Waves Ship Positions

MSC Lea

Last reported at 2016-May-25 06:33 UTC. Time now 2016-May-25 07:21 UTC.
Position N 32°52' E 034°59'.

Length 217 m; draft 7.9 m.

Type: Ship (hazmat cat A). MMSI: 215101000.

Date/timePositionNaut miles runAvg speedWind from/ knotsBaromVisibWave heightAir tempDewpointWater temp
2016-May-25 06:33N 32°52' E 034°59'3 2.8
2016-May-25 05:32N 32°49' E 035°01'0 0.0
2016-May-25 04:33N 32°49' E 035°01'0 0.0
2016-May-25 03:33N 32°49' E 035°01'0 0.0
2016-May-25 02:31N 32°49' E 035°01'0 0.0
2016-May-25 01:32N 32°49' E 035°01'0 0.0
2016-May-25 00:32N 32°49' E 035°01'0 0.0
2016-May-24 23:33N 32°49' E 035°01'0 0.0
2016-May-24 22:28N 32°49' E 035°01'0 0.0
2016-May-24 21:31N 32°49' E 035°01'0 0.0
2016-May-24 20:32N 32°49' E 035°01'0 0.0
2016-May-24 19:33N 32°49' E 035°01'0 0.0
2016-May-24 18:33N 32°49' E 035°01'0 0.0
2016-May-24 17:31N 32°49' E 035°01'0 0.0
2016-May-24 16:32N 32°49' E 035°01'0 0.0
2016-May-24 15:32N 32°49' E 035°01'0 0.0
2016-May-24 14:33N 32°49' E 035°01'0 0.0
2016-May-24 13:31N 32°49' E 035°01'0 0.0
2016-May-24 12:31N 32°49' E 035°01'0 0.0
2016-May-24 11:32N 32°49' E 035°01'0 0.0
2016-May-24 10:33N 32°49' E 035°01'0 0.0
2016-May-24 09:33N 32°49' E 035°01'0 0.0
2016-May-24 08:31N 32°49' E 035°01'0 0.0
2016-May-24 07:32N 32°49' E 035°01'0 0.0
2016-May-24 06:32N 32°49' E 035°01'0 0.0
2016-May-24 05:33N 32°49' E 035°01'0 0.0
2016-May-24 04:31N 32°49' E 035°01'0 0.0
2016-May-24 03:31N 32°49' E 035°01'0 0.0
2016-May-24 02:32N 32°49' E 035°01'2 1.6
2016-May-24 01:33N 32°51' E 035°01'4 3.7
2016-May-24 00:34N 32°53' E 034°57'10 9.9
2016-May-23 23:32N 32°55' E 034°45'  
2016-May-20 17:33N 37°49' E 015°42'1313.5
2016-May-20 16:33N 38°01' E 015°34'1312.9
2016-May-20 15:33N 38°14' E 015°36'1212.2
2016-May-20 14:33N 38°23' E 015°47'7 6.9
2016-May-20 13:30N 38°27' E 015°54'0 0.0
2016-May-20 12:31N 38°27' E 015°54'0 0.0
2016-May-20 11:29N 38°27' E 015°54'0 0.0
2016-May-20 10:29N 38°27' E 015°54'0 0.0
2016-May-20 09:33N 38°27' E 015°54'0 0.0
2016-May-20 08:31N 38°27' E 015°54'0 0.0
2016-May-20 07:31N 38°27' E 015°54'0 0.0
2016-May-20 06:26N 38°27' E 015°54'0 0.0
2016-May-20 04:30N 38°27' E 015°54'0 0.0
2016-May-20 03:31N 38°27' E 015°54'0 0.0
2016-May-19 20:33N 38°27' E 015°54'0 0.0
2016-May-19 19:33N 38°27' E 015°54'0 0.0
2016-May-19 18:31N 38°27' E 015°54'0 0.0
2016-May-19 17:32N 38°27' E 015°54'0 0.0
2016-May-19 16:29N 38°27' E 015°54'0 0.0
2016-May-19 15:30N 38°27' E 015°54'0 0.0
2016-May-19 14:07N 38°27' E 015°54'0 0.0
2016-May-19 13:31N 38°27' E 015°54'0 0.1
2016-May-19 12:33N 38°27' E 015°54'4 4.3
2016-May-19 11:33N 38°29' E 015°49'2 2.0
2016-May-19 10:33N 38°29' E 015°46'1 1.0
2016-May-19 09:34N 38°28' E 015°47'1 0.5
2016-May-19 08:33N 38°27' E 015°47'3 3.0
2016-May-19 07:33N 38°25' E 015°45'1514.8
2016-May-19 06:34N 38°11' E 015°37'1514.8
2016-May-19 05:33N 37°57' E 015°37'1010.5
2016-May-19 04:34N 37°47' E 015°43'1514.9
2016-May-19 03:34N 37°40' E 015°60'1615.9
2016-May-19 02:32N 37°34' E 016°19'1515.6
2016-May-19 01:33N 37°28' E 016°37'6615.5
2016-May-18 21:18N 37°03' E 017°53'2715.7
2016-May-18 19:33N 36°53' E 018°25'60315.3
2016-May-17 04:15N 33°47' E 030°09'4014.9
2016-May-17 01:34N 33°38' E 030°55'1515.2
2016-May-17 00:34N 33°35' E 031°13'1515.1
2016-May-16 23:33N 33°32' E 031°31'1514.9
2016-May-16 22:34N 33°28' E 031°48'1515.1
2016-May-16 21:34N 33°25' E 032°06'1515.5
2016-May-16 20:34N 33°21' E 032°24'1615.7
2016-May-16 19:34N 33°18' E 032°42'1615.7
2016-May-16 18:34N 33°14' E 033°00'1515.3
2016-May-16 17:33N 33°11' E 033°18'1514.8
2016-May-16 16:33N 33°07' E 033°36'1414.4
2016-May-16 15:34N 33°05' E 033°52'1414.2
2016-May-16 14:34N 33°01' E 034°09'1414.4
2016-May-16 13:34N 32°59' E 034°26'1515.0
2016-May-16 12:34N 32°56' E 034°43'1514.7
2016-May-16 11:33N 32°51' E 034°60'2 2.1
2016-May-16 10:34N 32°49' E 035°01'0 0.0
2016-May-16 09:31N 32°49' E 035°01'0 0.0
2016-May-16 08:32N 32°49' E 035°01'0 0.0
2016-May-16 07:33N 32°49' E 035°01'0 0.0
2016-May-16 06:33N 32°49' E 035°01'0 0.0
2016-May-16 05:31N 32°49' E 035°01'0 0.0
2016-May-16 04:32N 32°49' E 035°01'0 0.0
2016-May-16 03:32N 32°49' E 035°01'0 0.0
2016-May-16 02:33N 32°49' E 035°01'0 0.0
2016-May-16 01:34N 32°49' E 035°01'0 0.0
2016-May-16 00:31N 32°49' E 035°01'0 0.0
2016-May-15 23:32N 32°49' E 035°01'0 0.0
2016-May-15 22:33N 32°49' E 035°01'0 0.0
2016-May-15 21:33N 32°49' E 035°01'0 0.0
2016-May-15 20:31N 32°49' E 035°01'0 0.0
2016-May-15 19:32N 32°49' E 035°01'0 0.0
2016-May-15 18:32N 32°49' E 035°01'0 0.0
2016-May-15 17:33N 32°49' E 035°01'0 0.0
2016-May-15 16:31N 32°49' E 035°01'0 0.0
2016-May-15 15:31N 32°49' E 035°01'0 0.0
2016-May-15 14:32N 32°49' E 035°01'0 0.0
2016-May-15 13:33N 32°49' E 035°01'0 0.0
2016-May-15 12:33N 32°49' E 035°01'0 0.0
2016-May-15 11:31N 32°49' E 035°01'0 0.0
2016-May-15 10:32N 32°49' E 035°01'0 0.0
2016-May-15 09:32N 32°49' E 035°01'0 0.0
2016-May-15 08:33N 32°49' E 035°01'0 0.0
2016-May-15 07:31N 32°49' E 035°01'  
Track history (hours):
 
Tides and Currents Weather Stations Pressure Air Temp Water Temp Dewpoint Dewpoint Depression Visibility Wind Speed Wind Dir Waves Ship Positions

MSC Lea

Last reported at 2016-May-25 06:33 UTC. Time now 2016-May-25 07:21 UTC.
Position N 32°52' E 034°59'.

Length 217 m; draft 7.9 m.

Type: Ship (hazmat cat A). MMSI: 215101000.

Date/timePositionNaut miles runAvg speedWind from/ knotsBaromVisibWave heightAir tempDewpointWater temp
2016-May-25 06:33N 32°52' E 034°59'3 2.8
2016-May-25 05:32N 32°49' E 035°01'0 0.0
2016-May-25 04:33N 32°49' E 035°01'0 0.0
2016-May-25 03:33N 32°49' E 035°01'0 0.0
2016-May-25 02:31N 32°49' E 035°01'0 0.0
2016-May-25 01:32N 32°49' E 035°01'0 0.0
2016-May-25 00:32N 32°49' E 035°01'0 0.0
2016-May-24 23:33N 32°49' E 035°01'0 0.0
2016-May-24 22:28N 32°49' E 035°01'0 0.0
2016-May-24 21:31N 32°49' E 035°01'0 0.0
2016-May-24 20:32N 32°49' E 035°01'0 0.0
2016-May-24 19:33N 32°49' E 035°01'0 0.0
2016-May-24 18:33N 32°49' E 035°01'0 0.0
2016-May-24 17:31N 32°49' E 035°01'0 0.0
2016-May-24 16:32N 32°49' E 035°01'0 0.0
2016-May-24 15:32N 32°49' E 035°01'0 0.0
2016-May-24 14:33N 32°49' E 035°01'0 0.0
2016-May-24 13:31N 32°49' E 035°01'0 0.0
2016-May-24 12:31N 32°49' E 035°01'0 0.0
2016-May-24 11:32N 32°49' E 035°01'0 0.0
2016-May-24 10:33N 32°49' E 035°01'0 0.0
2016-May-24 09:33N 32°49' E 035°01'0 0.0
2016-May-24 08:31N 32°49' E 035°01'0 0.0
2016-May-24 07:32N 32°49' E 035°01'0 0.0
2016-May-24 06:32N 32°49' E 035°01'0 0.0
2016-May-24 05:33N 32°49' E 035°01'0 0.0
2016-May-24 04:31N 32°49' E 035°01'0 0.0
2016-May-24 03:31N 32°49' E 035°01'0 0.0
2016-May-24 02:32N 32°49' E 035°01'2 1.6
2016-May-24 01:33N 32°51' E 035°01'4 3.7
2016-May-24 00:34N 32°53' E 034°57'10 9.9
2016-May-23 23:32N 32°55' E 034°45'  
2016-May-20 17:33N 37°49' E 015°42'1313.5
2016-May-20 16:33N 38°01' E 015°34'1312.9
2016-May-20 15:33N 38°14' E 015°36'1212.2
2016-May-20 14:33N 38°23' E 015°47'7 6.9
2016-May-20 13:30N 38°27' E 015°54'0 0.0
2016-May-20 12:31N 38°27' E 015°54'0 0.0
2016-May-20 11:29N 38°27' E 015°54'0 0.0
2016-May-20 10:29N 38°27' E 015°54'0 0.0
2016-May-20 09:33N 38°27' E 015°54'0 0.0
2016-May-20 08:31N 38°27' E 015°54'0 0.0
2016-May-20 07:31N 38°27' E 015°54'0 0.0
2016-May-20 06:26N 38°27' E 015°54'0 0.0
2016-May-20 04:30N 38°27' E 015°54'0 0.0
2016-May-20 03:31N 38°27' E 015°54'0 0.0
2016-May-19 20:33N 38°27' E 015°54'0 0.0
2016-May-19 19:33N 38°27' E 015°54'0 0.0
2016-May-19 18:31N 38°27' E 015°54'0 0.0
2016-May-19 17:32N 38°27' E 015°54'0 0.0
2016-May-19 16:29N 38°27' E 015°54'0 0.0
2016-May-19 15:30N 38°27' E 015°54'0 0.0
2016-May-19 14:07N 38°27' E 015°54'0 0.0
2016-May-19 13:31N 38°27' E 015°54'0 0.1
2016-May-19 12:33N 38°27' E 015°54'4 4.3
2016-May-19 11:33N 38°29' E 015°49'2 2.0
2016-May-19 10:33N 38°29' E 015°46'1 1.0
2016-May-19 09:34N 38°28' E 015°47'1 0.5
2016-May-19 08:33N 38°27' E 015°47'3 3.0
2016-May-19 07:33N 38°25' E 015°45'1514.8
2016-May-19 06:34N 38°11' E 015°37'1514.8
2016-May-19 05:33N 37°57' E 015°37'1010.5
2016-May-19 04:34N 37°47' E 015°43'1514.9
2016-May-19 03:34N 37°40' E 015°60'1615.9
2016-May-19 02:32N 37°34' E 016°19'1515.6
2016-May-19 01:33N 37°28' E 016°37'6615.5
2016-May-18 21:18N 37°03' E 017°53'2715.7
2016-May-18 19:33N 36°53' E 018°25'60315.3
2016-May-17 04:15N 33°47' E 030°09'4014.9
2016-May-17 01:34N 33°38' E 030°55'1515.2
2016-May-17 00:34N 33°35' E 031°13'1515.1
2016-May-16 23:33N 33°32' E 031°31'1514.9
2016-May-16 22:34N 33°28' E 031°48'1515.1
2016-May-16 21:34N 33°25' E 032°06'1515.5
2016-May-16 20:34N 33°21' E 032°24'1615.7
2016-May-16 19:34N 33°18' E 032°42'1615.7
2016-May-16 18:34N 33°14' E 033°00'1515.3
2016-May-16 17:33N 33°11' E 033°18'1514.8
2016-May-16 16:33N 33°07' E 033°36'1414.4
2016-May-16 15:34N 33°05' E 033°52'1414.2
2016-May-16 14:34N 33°01' E 034°09'1414.4
2016-May-16 13:34N 32°59' E 034°26'1515.0
2016-May-16 12:34N 32°56' E 034°43'1514.7
2016-May-16 11:33N 32°51' E 034°60'2 2.1
2016-May-16 10:34N 32°49' E 035°01'0 0.0
2016-May-16 09:31N 32°49' E 035°01'0 0.0
2016-May-16 08:32N 32°49' E 035°01'0 0.0
2016-May-16 07:33N 32°49' E 035°01'0 0.0
2016-May-16 06:33N 32°49' E 035°01'0 0.0
2016-May-16 05:31N 32°49' E 035°01'0 0.0
2016-May-16 04:32N 32°49' E 035°01'0 0.0
2016-May-16 03:32N 32°49' E 035°01'0 0.0
2016-May-16 02:33N 32°49' E 035°01'0 0.0
2016-May-16 01:34N 32°49' E 035°01'0 0.0
2016-May-16 00:31N 32°49' E 035°01'0 0.0
2016-May-15 23:32N 32°49' E 035°01'0 0.0
2016-May-15 22:33N 32°49' E 035°01'0 0.0
2016-May-15 21:33N 32°49' E 035°01'0 0.0
2016-May-15 20:31N 32°49' E 035°01'0 0.0
2016-May-15 19:32N 32°49' E 035°01'0 0.0
2016-May-15 18:32N 32°49' E 035°01'0 0.0
2016-May-15 17:33N 32°49' E 035°01'0 0.0
2016-May-15 16:31N 32°49' E 035°01'0 0.0
2016-May-15 15:31N 32°49' E 035°01'0 0.0
2016-May-15 14:32N 32°49' E 035°01'0 0.0
2016-May-15 13:33N 32°49' E 035°01'0 0.0
2016-May-15 12:33N 32°49' E 035°01'0 0.0
2016-May-15 11:31N 32°49' E 035°01'0 0.0
2016-May-15 10:32N 32°49' E 035°01'0 0.0
2016-May-15 09:32N 32°49' E 035°01'0 0.0
2016-May-15 08:33N 32°49' E 035°01'0 0.0
2016-May-15 07:31N 32°49' E 035°01'  

Dump ship's entire track history